createdAt,value
2022-08-08T00:02:04.151Z,2.03
2022-08-08T00:06:04.049Z,1.95
2022-08-08T00:10:17.361Z,2.17
2022-08-08T00:14:47.699Z,1.88
2022-08-08T00:18:30.641Z,2.10
2022-08-08T00:22:56.064Z,2.00
2022-08-08T00:30:30.864Z,1.85
2022-08-08T00:35:08.859Z,2.28
2022-08-08T00:43:41.446Z,1.90
2022-08-08T00:48:05.417Z,1.70
2022-08-08T00:52:22.939Z,1.67
2022-08-08T00:56:50.914Z,2.00
2022-08-08T01:00:50.666Z,2.08
2022-08-08T01:05:03.964Z,2.10
2022-08-08T01:09:34.834Z,2.20
2022-08-08T01:13:58.494Z,1.83
2022-08-08T01:17:53.933Z,2.40
2022-08-08T01:22:12.790Z,2.10
2022-08-08T01:26:13.887Z,2.38
2022-08-08T01:30:54.096Z,1.80
2022-08-08T01:35:01.404Z,2.20
2022-08-08T01:38:56.239Z,1.95
2022-08-08T01:43:04.168Z,2.13
2022-08-08T01:48:14.872Z,2.33
2022-08-08T01:52:52.643Z,1.73
2022-08-08T01:56:30.974Z,2.15
2022-08-08T02:04:04.157Z,2.42
2022-08-08T02:08:23.813Z,1.65
2022-08-08T02:12:53.493Z,1.58
2022-08-08T02:16:52.536Z,1.88
2022-08-08T02:21:18.341Z,2.72
2022-08-08T02:25:23.068Z,2.92
2022-08-08T02:29:52.674Z,3.10
2022-08-08T02:34:14.841Z,2.85
2022-08-08T02:38:34.102Z,2.70
2022-08-08T02:42:35.975Z,2.50
2022-08-08T02:46:37.136Z,2.30
2022-08-08T02:51:05.260Z,2.47
2022-08-08T02:54:50.383Z,2.17
2022-08-08T02:58:47.641Z,2.10
2022-08-08T03:03:08.046Z,2.38
2022-08-08T03:07:23.076Z,2.13
2022-08-08T03:12:01.801Z,2.10
2022-08-08T03:16:13.042Z,1.95
2022-08-08T03:20:15.565Z,2.38
2022-08-08T03:24:02.038Z,2.30
2022-08-08T03:28:10.236Z,2.00
2022-08-08T03:32:13.081Z,1.85
2022-08-08T03:35:56.115Z,2.10
2022-08-08T03:39:51.510Z,1.75
2022-08-08T03:43:38.455Z,1.95
2022-08-08T03:47:22.643Z,1.50
2022-08-08T03:51:07.399Z,2.08
2022-08-08T03:55:02.562Z,1.90
2022-08-08T03:58:53.230Z,2.15
2022-08-08T04:02:47.061Z,1.80
2022-08-08T04:06:30.631Z,2.20
2022-08-08T04:10:12.720Z,2.35
2022-08-08T04:14:03.943Z,2.15
2022-08-08T04:17:58.739Z,2.40
2022-08-08T04:21:45.706Z,2.40
2022-08-08T04:25:29.662Z,2.65
2022-08-08T04:29:12.400Z,2.63
2022-08-08T04:32:57.031Z,2.20
2022-08-08T04:36:38.923Z,2.45
2022-08-08T04:40:23.859Z,2.08
2022-08-08T04:44:06.453Z,2.30
2022-08-08T04:47:48.250Z,2.40
2022-08-08T04:51:55.041Z,2.58
2022-08-08T04:55:47.322Z,2.35
2022-08-08T04:59:42.214Z,2.53
2022-08-08T05:04:10.101Z,2.63
2022-08-08T05:07:26.985Z,2.85
2022-08-08T05:11:23.826Z,2.92
2022-08-08T05:15:08.186Z,2.90
2022-08-08T05:18:56.399Z,2.30
2022-08-08T05:22:39.441Z,2.35
2022-08-08T05:26:22.513Z,2.40
2022-08-08T05:30:12.819Z,2.17
2022-08-08T05:33:54.766Z,2.10
2022-08-08T05:37:52.025Z,2.00
2022-08-08T05:41:54.654Z,2.08
2022-08-08T05:45:43.246Z,2.55
2022-08-08T05:49:38.028Z,2.53
2022-08-08T05:54:24.129Z,2.35
2022-08-08T05:58:05.453Z,2.80
2022-08-08T06:01:55.980Z,2.67
2022-08-08T06:05:44.391Z,2.88
2022-08-08T06:10:00.402Z,2.83
2022-08-08T06:13:47.343Z,3.30
2022-08-08T06:17:50.924Z,2.70
2022-08-08T06:26:35.697Z,3.38
2022-08-08T06:30:20.143Z,3.13
2022-08-08T06:34:26.504Z,3.10
2022-08-08T06:38:14.434Z,3.15
2022-08-08T06:41:58.182Z,3.40
2022-08-08T06:45:40.413Z,3.47
2022-08-08T06:49:55.664Z,3.30
2022-08-08T06:53:38.885Z,4.18
2022-08-08T06:57:25.135Z,3.58
2022-08-08T07:02:17.389Z,3.35
2022-08-08T07:05:20.501Z,3.20
2022-08-08T07:09:21.293Z,3.67
2022-08-08T07:17:09.549Z,3.83
2022-08-08T07:21:04.829Z,4.05
2022-08-08T07:25:02.322Z,3.45
2022-08-08T07:28:44.775Z,3.40
2022-08-08T07:32:27.918Z,3.50
2022-08-08T07:36:11.579Z,3.72
2022-08-08T07:39:59.916Z,3.22
2022-08-08T07:43:53.438Z,3.60
2022-08-08T07:47:39.179Z,3.60
2022-08-08T07:51:23.840Z,3.77
2022-08-08T07:55:36.453Z,3.10
2022-08-08T07:59:20.862Z,3.70
2022-08-08T08:03:20.326Z,4.05
2022-08-08T08:07:08.550Z,3.47
2022-08-08T08:10:52.258Z,4.35
2022-08-08T08:15:02.978Z,4.18
2022-08-08T08:18:56.411Z,3.40
2022-08-08T08:22:38.680Z,3.80
2022-08-08T08:26:27.602Z,3.85
2022-08-08T08:30:11.027Z,4.10
2022-08-08T08:33:53.207Z,3.10
2022-08-08T08:37:52.847Z,3.55
2022-08-08T08:41:39.037Z,3.50
2022-08-08T08:45:23.695Z,3.50
2022-08-08T08:49:09.858Z,3.17
2022-08-08T08:52:59.371Z,3.67
2022-08-08T08:56:41.800Z,3.13
2022-08-08T09:00:39.774Z,2.60
2022-08-08T09:04:38.690Z,2.70
2022-08-08T09:08:27.547Z,3.65
2022-08-08T09:12:12.012Z,3.33
2022-08-08T09:16:03.570Z,2.53
2022-08-08T09:21:58.981Z,2.78
2022-08-08T09:23:52.079Z,2.72
2022-08-08T09:27:41.990Z,3.10
2022-08-08T09:32:12.020Z,2.63
2022-08-08T09:35:56.934Z,2.30
2022-08-08T09:39:41.903Z,2.95
2022-08-08T09:44:03.031Z,2.40
2022-08-08T09:48:04.778Z,2.40
2022-08-08T09:51:41.552Z,3.10
2022-08-08T09:56:05.195Z,2.00
2022-08-08T10:00:02.817Z,2.58
2022-08-08T10:03:55.932Z,1.83
2022-08-08T10:07:45.757Z,1.40
2022-08-08T10:12:27.355Z,1.40
2022-08-08T10:15:39.069Z,1.75
2022-08-08T10:19:21.243Z,2.08
2022-08-08T10:23:04.593Z,1.15
2022-08-08T10:26:59.677Z,1.33
2022-08-08T10:31:01.056Z,0.90
2022-08-08T10:34:57.065Z,0.90
2022-08-08T10:38:43.006Z,0.98
2022-08-08T10:42:38.898Z,1.23
2022-08-08T10:46:30.231Z,1.13
2022-08-08T10:50:15.443Z,0.80
2022-08-08T10:53:59.754Z,1.30
2022-08-08T10:57:50.465Z,1.00
2022-08-08T11:01:39.384Z,1.13
2022-08-08T11:05:22.958Z,0.73
2022-08-08T11:09:15.545Z,0.70
2022-08-08T11:17:08.701Z,0.80
2022-08-08T11:21:00.957Z,0.70
2022-08-08T11:24:53.510Z,1.00
2022-08-08T11:28:38.849Z,0.80
2022-08-08T11:32:29.321Z,0.98
2022-08-08T11:36:15.099Z,1.05
2022-08-08T11:39:59.106Z,0.80
2022-08-08T11:43:45.135Z,0.60
2022-08-08T11:47:39.680Z,0.50
2022-08-08T11:51:39.686Z,0.55
2022-08-08T11:55:32.085Z,0.75
2022-08-08T11:59:13.889Z,0.50
2022-08-08T12:02:57.268Z,0.50
2022-08-08T12:06:40.792Z,0.65
2022-08-08T12:10:27.996Z,0.60
2022-08-08T12:14:11.026Z,0.45
2022-08-08T12:17:54.035Z,0.57
2022-08-08T12:21:58.551Z,0.70
2022-08-08T12:25:38.483Z,0.63
2022-08-08T12:29:42.512Z,0.70
2022-08-08T12:33:37.242Z,0.45
2022-08-08T12:41:35.352Z,0.57
2022-08-08T12:45:58.328Z,0.63
2022-08-08T12:49:53.645Z,0.60
2022-08-08T12:53:44.147Z,0.77
2022-08-08T12:57:28.997Z,0.63
2022-08-08T13:01:14.070Z,0.77
2022-08-08T13:04:59.233Z,0.50
2022-08-08T13:08:53.425Z,0.70
2022-08-08T13:12:47.172Z,0.50
2022-08-08T13:16:33.640Z,0.77
2022-08-08T13:20:20.041Z,0.63
2022-08-08T13:24:06.324Z,0.63
2022-08-08T13:27:56.447Z,0.70
2022-08-08T13:31:51.722Z,0.70
2022-08-08T13:35:38.996Z,0.57
2022-08-08T13:39:25.687Z,0.60
2022-08-08T13:43:08.305Z,0.68
2022-08-08T13:47:08.321Z,0.63
2022-08-08T13:50:55.096Z,0.82
2022-08-08T13:54:44.416Z,0.50
2022-08-08T13:58:31.572Z,0.88
2022-08-08T14:02:20.647Z,0.57
2022-08-08T14:06:32.321Z,0.63
2022-08-08T14:10:17.734Z,0.60
2022-08-08T14:14:20.560Z,1.38
2022-08-08T14:18:35.556Z,0.85
2022-08-08T14:22:26.270Z,0.43
2022-08-08T14:26:10.858Z,0.60
2022-08-08T14:29:59.029Z,0.50
2022-08-08T14:33:43.420Z,0.85
2022-08-08T14:37:43.170Z,0.60
2022-08-08T14:41:54.786Z,0.60
2022-08-08T14:46:02.096Z,0.70
2022-08-08T14:50:02.536Z,0.68
2022-08-08T14:53:55.586Z,0.60
2022-08-08T14:58:06.540Z,0.68
2022-08-08T15:01:49.782Z,0.70
2022-08-08T15:05:43.150Z,0.60
2022-08-08T15:09:34.434Z,0.73
2022-08-08T15:13:17.581Z,0.77
2022-08-08T15:20:45.169Z,1.05
2022-08-08T15:24:31.762Z,1.00
2022-08-08T15:28:34.169Z,1.00
2022-08-08T15:32:20.517Z,1.00
2022-08-08T15:36:05.257Z,0.85
2022-08-08T15:39:48.213Z,0.93
2022-08-08T15:43:36.472Z,0.80
2022-08-08T15:47:20.452Z,0.88
2022-08-08T15:51:06.131Z,0.70
2022-08-08T15:54:51.624Z,0.82
2022-08-08T15:58:35.528Z,0.70
2022-08-08T16:02:17.423Z,0.88
2022-08-08T16:06:01.851Z,0.90
2022-08-08T16:13:03.531Z,0.80
2022-08-08T16:13:47.046Z,1.20
2022-08-08T16:17:57.429Z,1.00
2022-08-08T16:21:34.855Z,1.20
2022-08-08T16:25:16.909Z,1.02
2022-08-08T16:29:01.980Z,1.08
2022-08-08T16:32:48.426Z,1.05
2022-08-08T16:36:34.071Z,1.00
2022-08-08T16:40:19.905Z,0.90
2022-08-08T16:44:01.937Z,0.88
2022-08-08T16:47:46.571Z,0.93
2022-08-08T16:55:02.815Z,0.80
2022-08-08T16:55:53.500Z,0.80
2022-08-08T16:59:51.961Z,1.00
2022-08-08T17:04:00.385Z,0.88
2022-08-08T17:07:37.735Z,0.68
2022-08-08T17:11:22.351Z,0.93
2022-08-08T17:15:17.553Z,1.20
2022-08-08T17:19:02.456Z,0.85
2022-08-08T17:22:44.870Z,0.90
2022-08-08T17:26:46.697Z,1.20
2022-08-08T17:30:31.478Z,1.00
2022-08-08T17:34:48.296Z,1.10
2022-08-08T17:38:16.795Z,1.02
2022-08-08T17:42:02.792Z,0.90
2022-08-08T17:45:44.744Z,1.30
2022-08-08T17:49:28.490Z,1.30
2022-08-08T17:53:37.372Z,1.20
2022-08-08T17:57:22.231Z,1.35
2022-08-08T18:01:10.191Z,1.02
2022-08-08T18:04:54.962Z,1.00
2022-08-08T18:08:41.373Z,1.00
2022-08-08T18:12:24.051Z,1.27
2022-08-08T18:16:06.257Z,1.15
2022-08-08T18:20:42.993Z,1.65
2022-08-08T18:23:55.760Z,1.63
2022-08-08T18:27:38.406Z,1.58
2022-08-08T18:31:27.739Z,1.48
2022-08-08T18:35:15.665Z,1.40
2022-08-08T18:38:58.642Z,1.33
2022-08-08T18:42:45.598Z,1.05
2022-08-08T18:46:54.802Z,1.20
2022-08-08T18:50:33.946Z,1.17
2022-08-08T18:54:22.799Z,1.50
2022-08-08T18:58:10.272Z,1.17
2022-08-08T19:02:25.541Z,1.40
2022-08-08T19:05:53.973Z,1.02
2022-08-08T19:09:49.344Z,1.45
2022-08-08T19:13:56.639Z,1.15
2022-08-08T19:17:48.266Z,1.02
2022-08-08T19:21:49.194Z,1.20
2022-08-08T19:26:19.984Z,1.05
2022-08-08T19:29:42.423Z,1.20
2022-08-08T19:33:51.860Z,1.25
2022-08-08T19:37:43.039Z,1.20
2022-08-08T19:41:33.714Z,1.83
2022-08-08T19:45:58.414Z,1.63
2022-08-08T19:49:22.181Z,1.30
2022-08-08T19:53:04.579Z,1.70
2022-08-08T19:57:07.671Z,1.55
2022-08-08T20:00:50.412Z,1.88
2022-08-08T20:04:35.991Z,1.50
2022-08-08T20:08:39.312Z,2.00
2022-08-08T20:12:32.360Z,1.80
2022-08-08T20:16:18.761Z,1.58
2022-08-08T20:20:01.280Z,1.90
2022-08-08T20:23:43.794Z,1.67
2022-08-08T20:27:26.044Z,1.77
2022-08-08T20:31:14.895Z,1.58
2022-08-08T20:35:02.398Z,1.60
2022-08-08T20:38:44.381Z,1.60
2022-08-08T20:42:29.049Z,1.75
2022-08-08T20:46:11.468Z,1.50
2022-08-08T20:49:55.921Z,1.88
2022-08-08T20:53:59.233Z,2.13
2022-08-08T20:57:43.990Z,2.45
2022-08-08T21:01:31.814Z,2.10
2022-08-08T21:05:13.978Z,2.25
2022-08-08T21:08:58.892Z,2.33
2022-08-08T21:12:41.436Z,1.73
2022-08-08T21:16:29.014Z,1.90
2022-08-08T21:20:11.313Z,2.25
2022-08-08T21:23:59.051Z,2.10
2022-08-08T21:28:09.523Z,2.60
2022-08-08T21:31:58.782Z,2.70
2022-08-08T21:36:14.563Z,3.30
2022-08-08T21:39:56.341Z,1.77
2022-08-08T21:43:39.225Z,2.60
2022-08-08T21:48:03.905Z,2.03
2022-08-08T21:54:18.739Z,2.17
2022-08-08T21:56:19.557Z,3.08
2022-08-08T22:00:01.481Z,2.85
2022-08-08T22:03:30.718Z,2.45
2022-08-08T22:07:12.573Z,1.80
2022-08-08T22:10:55.259Z,1.67
2022-08-08T22:14:39.020Z,2.83
2022-08-08T22:18:24.647Z,2.10
2022-08-08T22:22:07.031Z,2.63
2022-08-08T22:26:26.957Z,2.42
2022-08-08T22:30:02.790Z,2.50
2022-08-08T22:34:13.672Z,2.72
2022-08-08T22:37:54.323Z,2.50
2022-08-08T22:41:36.718Z,2.72
2022-08-08T22:45:21.165Z,2.95
2022-08-08T22:49:03.526Z,2.70
2022-08-08T22:53:01.571Z,2.17
2022-08-08T22:56:50.174Z,2.22
2022-08-08T23:00:32.435Z,2.20
2022-08-08T23:04:14.594Z,2.08
2022-08-08T23:08:17.980Z,2.05
2022-08-08T23:12:28.935Z,2.22
2022-08-08T23:16:39.241Z,2.25
2022-08-08T23:20:06.069Z,2.28
2022-08-08T23:23:48.826Z,2.38
2022-08-08T23:27:46.285Z,2.67
2022-08-08T23:31:28.604Z,2.60
2022-08-08T23:35:16.933Z,2.60
2022-08-08T23:38:59.223Z,2.80
2022-08-08T23:42:41.032Z,2.38
2022-08-08T23:49:01.800Z,2.67
2022-08-08T23:50:29.980Z,2.58
2022-08-08T23:54:42.791Z,2.55
2022-08-08T23:58:22.314Z,2.70
